Time;durP1;ratioP1;P1;durP2;ratioP2;P2;SDS_P1;SDS_P2;PMS_P1;PMS_P2;Temp;Humidity;BMP_temperature;BMP_pressure;BME280_temperature;BME280_humidity;BME280_pressure;Samples;Min_cycle;Max_cycle;Signal;HPM_P1;HPM_P2
2022/04/28 00:01:36;;;;;;;8.98;3.85;;;;;;;13.89;73.58;99939.63;10396555;28;20512;-76
2022/04/28 00:06:37;;;;;;;7.75;3.90;;;;;;;14.51;73.91;100068.75;10414094;28;20139;-76
2022/04/28 00:11:37;;;;;;;12.68;4.07;;;;;;;13.79;74.45;100013.94;10414173;28;20063;-76
2022/04/28 00:16:38;;;;;;;11.98;4.65;;;;;;;14.26;76.58;100110.31;10413146;28;20046;-76
2022/04/28 00:21:39;;;;;;;9.68;3.58;;;;;;;13.35;76.59;99984.91;10412340;28;20073;-76
2022/04/28 00:26:40;;;;;;;15.30;4.13;;;;;;;13.45;77.18;100004.06;10413568;28;20049;-76
2022/04/28 00:31:41;;;;;;;8.10;3.75;;;;;;;13.91;76.90;100099.66;10413373;28;20041;-76
2022/04/28 00:36:41;;;;;;;17.73;4.72;;;;;;;12.89;77.57;99927.53;10413835;28;20502;-76
2022/04/28 00:41:42;;;;;;;11.10;4.25;;;;;;;13.40;77.49;100044.69;10412372;28;20053;-76
2022/04/28 00:46:43;;;;;;;9.75;4.07;;;;;;;13.01;78.03;99997.13;10412964;28;20072;-76
2022/04/28 00:51:44;;;;;;;12.57;4.78;;;;;;;13.63;79.04;100121.81;10414009;28;20050;-76
2022/04/28 00:56:45;;;;;;;10.30;4.70;;;;;;;13.27;79.78;100062.41;10412847;28;20045;-76
2022/04/28 01:01:46;;;;;;;13.13;4.40;;;;;;;11.92;79.29;99871.28;10412201;28;20088;-76
2022/04/28 01:06:47;;;;;;;14.68;4.70;;;;;;;13.07;79.24;100063.00;10413535;28;20048;-76
2022/04/28 01:11:48;;;;;;;11.98;3.78;;;;;;;13.47;79.30;100111.44;10413093;28;20152;-76
2022/04/28 01:16:49;;;;;;;10.15;3.90;;;;;;;12.83;78.89;100032.22;10412468;28;20076;-76
2022/04/28 01:21:51;;;;;;;7.75;3.78;;;;;;;10.45;79.44;99662.09;10411932;28;20111;-76
2022/04/28 01:26:54;;;;;;;10.07;4.10;;;;;;;13.04;80.65;100076.72;10394022;28;20112;-76
2022/04/28 01:31:55;;;;;;;10.98;4.97;;;;;;;12.26;80.78;99939.81;10413009;28;20572;-76
2022/04/28 01:36:56;;;;;;;14.57;4.95;;;;;;;11.55;80.79;99841.97;10418400;28;20125;-76
2022/04/28 01:41:56;;;;;;;8.07;4.03;;;;;;;12.30;80.44;99981.06;10419177;28;20535;-76
2022/04/28 01:46:57;;;;;;;9.05;4.35;;;;;;;13.21;79.68;100134.13;10420004;28;20051;-76
2022/04/28 01:57:39;;;;;;;13.55;4.72;;;;;;;13.05;79.60;100154.91;10292422;28;20077;-76
2022/04/28 02:02:40;;;;;;;13.63;5.28;;;;;;;12.78;80.44;100115.44;10390153;28;20057;-76
2022/04/28 02:07:41;;;;;;;15.45;5.25;;;;;;;12.32;80.86;100033.16;10418949;28;20100;-76
2022/04/28 02:12:42;;;;;;;9.10;4.53;;;;;;;13.32;80.46;100172.03;10418572;28;20041;-76
2022/04/28 02:17:43;;;;;;;9.75;4.13;;;;;;;13.41;79.65;100150.38;10409801;28;20041;-75
2022/04/28 02:22:44;;;;;;;11.02;4.65;;;;;;;12.55;79.24;100022.31;10395479;28;20073;-76
2022/04/28 02:27:44;;;;;;;8.73;4.47;;;;;;;12.74;78.97;100036.88;10377793;28;20041;-76
2022/04/28 02:38:05;;;;;;;22.95;4.90;;;;;;;13.81;78.29;100174.72;10376226;28;20037;-75
2022/04/28 02:43:06;;;;;;;12.00;4.32;;;;;;;14.15;77.79;100190.00;10376247;28;20524;-75
2022/04/28 02:48:08;;;;;;;14.27;4.20;;;;;;;13.68;77.28;100073.19;10373747;28;20042;-75
2022/04/28 02:53:08;;;;;;;8.38;4.25;;;;;;;14.57;75.92;100137.44;10382822;28;20041;-76
2022/04/28 02:58:09;;;;;;;10.20;3.63;;;;;;;14.45;74.10;100016.06;10416552;28;20037;-76
2022/04/28 03:03:10;;;;;;;9.18;4.05;;;;;;;15.94;72.04;100135.41;10417139;28;20064;-76
2022/04/28 03:13:32;;;;;;;8.68;3.22;;;;;;;16.97;67.48;100067.59;10415857;28;20041;-76
2022/04/28 03:18:33;;;;;;;20.17;3.60;;;;;;;17.81;65.07;100108.47;10414991;28;20120;-76
2022/04/28 03:23:34;;;;;;;11.98;3.13;;;;;;;18.87;63.27;100172.69;10415507;28;20406;-76
2022/04/28 03:28:35;;;;;;;19.08;3.85;;;;;;;19.76;61.67;100220.56;10415397;28;20033;-76
2022/04/28 03:33:37;;;;;;;10.38;2.88;;;;;;;20.06;59.59;100177.34;10415457;28;20555;-76
2022/04/28 03:38:37;;;;;;;14.90;3.63;;;;;;;20.12;57.67;100106.31;10415660;28;20400;-76
2022/04/28 03:43:38;;;;;;;5.65;2.35;;;;;;;20.75;56.37;100164.03;10414781;28;20037;-77
2022/04/28 03:48:39;;;;;;;5.65;2.58;;;;;;;21.62;55.57;100236.75;10414853;28;20413;-76
2022/04/28 03:53:39;;;;;;;7.10;2.60;;;;;;;21.72;54.53;100217.19;10414021;28;20040;-76
2022/04/28 03:58:40;;;;;;;8.52;2.60;;;;;;;20.61;53.81;100015.06;10413602;28;20084;-76
2022/04/28 04:03:41;;;;;;;9.20;2.40;;;;;;;22.24;52.96;100232.38;10413759;28;20038;-76
2022/04/28 04:08:42;;;;;;;5.45;2.60;;;;;;;21.80;52.64;100173.50;10414081;28;20114;-74
2022/04/28 04:13:43;;;;;;;7.95;2.45;;;;;;;22.30;51.89;100239.50;10414460;28;20045;-74
2022/04/28 04:18:43;;;;;;;6.32;2.45;;;;;;;21.89;51.34;100236.09;10397254;28;20069;-69
2022/04/28 04:23:44;;;;;;;7.15;2.65;;;;;;;21.94;51.47;100251.63;10413639;28;20044;-68
2022/04/28 04:28:45;;;;;;;9.82;2.85;;;;;;;21.98;51.16;100261.69;10403854;28;20516;-70
2022/04/28 04:33:46;;;;;;;7.15;2.50;;;;;;;21.46;50.92;100134.84;10412859;28;20052;-69
2022/04/28 04:38:47;;;;;;;7.40;2.35;;;;;;;22.08;50.26;100196.94;10411715;28;20041;-72
2022/04/28 04:43:47;;;;;;;9.45;2.35;;;;;;;22.21;50.32;100228.28;10411185;28;20045;-76
2022/04/28 04:48:49;;;;;;;7.07;2.72;;;;;;;21.65;49.89;100124.59;10413646;28;20073;-77
2022/04/28 04:53:52;;;;;;;9.27;3.30;;;;;;;21.78;49.82;100166.72;10413283;28;20037;-79
2022/04/28 04:58:53;;;;;;;8.98;2.55;;;;;;;21.11;50.67;100111.50;10412945;28;20049;-80
2022/04/28 05:03:54;;;;;;;8.75;2.80;;;;;;;20.29;51.25;100039.78;10411696;28;20037;-77
2022/04/28 05:08:55;;;;;;;7.00;2.80;;;;;;;21.36;51.79;100216.56;10412444;28;20480;-78
2022/04/28 05:13:56;;;;;;;9.20;2.83;;;;;;;21.24;51.59;100166.28;10421104;28;20055;-79
2022/04/28 05:18:56;;;;;;;8.82;3.08;;;;;;;21.82;52.04;100267.91;10419809;28;20407;-78
2022/04/28 05:23:57;;;;;;;6.65;2.63;;;;;;;20.95;52.42;100106.91;10420863;28;20041;-77
2022/04/28 05:28:58;;;;;;;11.52;3.15;;;;;;;22.19;52.60;100262.88;10420266;28;20124;-79
2022/04/28 05:33:59;;;;;;;8.55;3.00;;;;;;;22.23;53.11;100310.03;10420514;28;20041;-79
2022/04/28 05:39:00;;;;;;;13.68;2.95;;;;;;;20.96;53.06;100063.44;10420252;28;20048;-79
2022/04/28 05:49:21;;;;;;;26.88;3.58;;;;;;;22.62;52.46;100258.66;10419363;28;20038;-78
2022/04/28 05:54:22;;;;;;;9.52;3.03;;;;;;;22.10;51.97;100116.34;10419478;28;20091;-80
2022/04/28 05:59:23;;;;;;;12.75;2.75;;;;;;;22.80;51.09;100173.56;10419370;28;20086;-80
2022/04/28 06:04:24;;;;;;;20.45;3.92;;;;;;;23.16;49.17;100222.78;10419347;28;20409;-80
2022/04/28 06:09:24;;;;;;;13.90;3.67;;;;;;;22.51;48.59;100107.97;10418794;28;20132;-82
2022/04/28 06:14:25;;;;;;;13.43;3.80;;;;;;;22.92;47.82;100141.75;10419096;28;20049;-81
2022/04/28 06:19:26;;;;;;;24.85;3.97;;;;;;;23.32;47.61;100156.81;10418085;28;20524;-82
2022/04/28 06:24:27;;;;;;;21.33;3.67;;;;;;;24.07;47.66;100297.97;10416847;28;20107;-79
2022/04/28 06:29:27;;;;;;;17.92;3.85;;;;;;;24.45;47.37;100324.13;10417979;28;20083;-79
2022/04/28 06:34:28;;;;;;;35.25;4.93;;;;;;;24.13;47.10;100243.47;10418273;28;20041;-79
2022/04/28 06:39:29;;;;;;;32.72;3.67;;;;;;;23.79;47.02;100180.56;10417960;28;20517;-78
2022/04/28 06:44:30;;;;;;;22.17;3.65;;;;;;;23.88;47.32;100180.91;10417017;28;20444;-79
2022/04/28 06:49:31;;;;;;;18.00;3.75;;;;;;;23.81;47.21;100197.41;10417837;28;20411;-77
2022/04/28 06:54:33;;;;;;;21.65;4.32;;;;;;;23.68;46.61;100133.53;10416989;28;20037;-82
2022/04/28 06:59:34;;;;;;;13.50;4.65;;;;;;;24.94;46.42;100310.28;10416728;28;20140;-77
2022/04/28 07:04:35;;;;;;;20.42;3.78;;;;;;;24.69;46.33;100269.41;10416197;28;20120;-81
2022/04/28 07:09:36;;;;;;;22.20;3.80;;;;;;;24.19;46.35;100152.06;10417319;28;20049;-81
2022/04/28 07:14:36;;;;;;;24.05;4.18;;;;;;;25.21;46.04;100315.59;10416759;28;20037;-79
2022/04/28 07:19:37;;;;;;;9.57;3.70;;;;;;;25.52;45.98;100304.84;10415520;28;20052;-81
2022/04/28 07:24:38;;;;;;;18.17;3.85;;;;;;;24.87;45.89;100197.50;10408178;28;20125;-79
2022/04/28 07:29:39;;;;;;;20.33;4.10;;;;;;;25.64;45.88;100310.84;10375590;28;20140;-78
2022/04/28 07:34:40;;;;;;;17.05;3.58;;;;;;;25.32;45.68;100240.31;10373575;28;20103;-81
2022/04/28 07:39:40;;;;;;;33.08;4.22;;;;;;;24.99;45.55;100188.03;10374765;28;20042;-81
2022/04/28 07:44:41;;;;;;;17.90;3.80;;;;;;;25.22;44.78;100172.34;10374119;28;20041;-80
2022/04/28 07:49:42;;;;;;;24.58;3.88;;;;;;;25.20;44.31;100139.19;10375038;28;20393;-82
2022/04/28 07:54:43;;;;;;;33.65;5.18;;;;;;;24.83;43.55;100056.75;10374371;28;20054;-81
2022/04/28 07:59:44;;;;;;;19.52;3.92;;;;;;;25.49;43.23;100131.31;10373660;28;20520;-80
2022/04/28 08:04:45;;;;;;;16.00;4.13;;;;;;;25.74;43.48;100163.13;10373529;28;20046;-80
2022/04/28 08:09:46;;;;;;;28.23;4.75;;;;;;;25.35;42.76;100035.88;10374024;28;20057;-81
2022/04/28 08:14:47;;;;;;;22.98;4.28;;;;;;;27.03;42.86;100287.09;10373753;28;20038;-80
2022/04/28 08:19:49;;;;;;;35.07;4.40;;;;;;;26.38;42.50;100156.22;10331657;28;20078;-82
2022/04/28 08:24:50;;;;;;;27.73;5.05;;;;;;;26.41;42.54;100174.72;10332692;28;20531;-79
2022/04/28 08:29:51;;;;;;;22.50;4.05;;;;;;;26.01;42.31;100107.59;10331513;28;20077;-81
2022/04/28 08:34:52;;;;;;;23.10;3.97;;;;;;;27.50;42.18;100281.16;10331008;28;20443;-79
2022/04/28 08:39:53;;;;;;;26.38;4.28;;;;;;;27.51;41.92;100284.69;10331234;28;20057;-81
2022/04/28 08:44:59;;;;;;;18.00;4.13;;;;;;;27.67;41.67;100272.59;10331669;28;20069;-80
2022/04/28 08:50:00;;;;;;;28.13;4.15;;;;;;;27.36;41.75;100192.84;10331754;28;20042;-82
2022/04/28 08:55:02;;;;;;;26.23;5.15;;;;;;;27.72;41.54;100258.88;10332641;28;20553;-79
2022/04/28 09:00:04;;;;;;;33.33;4.80;;;;;;;27.69;41.64;100266.84;10332247;28;20093;-80
2022/04/28 09:05:07;;;;;;;26.60;5.15;;;;;;;26.90;41.60;100113.25;10331558;28;20049;-80
2022/04/28 09:10:43;;;;;;;23.95;4.28;;;;;;;27.90;40.50;100223.84;10330706;28;20072;-81
2022/04/28 09:15:47;;;;;;;20.58;4.57;;;;;;;26.80;40.96;100038.63;10281395;28;20512;-78
2022/04/28 09:20:48;;;;;;;22.30;5.65;;;;;;;28.37;40.94;100244.16;10331382;28;20046;-78
2022/04/28 09:25:50;;;;;;;20.77;5.00;;;;;;;28.52;40.73;100245.97;10330902;28;20445;-80
2022/04/28 09:30:52;;;;;;;21.25;4.57;;;;;;;28.62;40.38;100240.38;10331187;28;20513;-80
2022/04/28 09:35:54;;;;;;;27.10;5.00;;;;;;;28.14;39.40;100194.66;10331168;28;20046;-80
2022/04/28 09:46:14;;;;;;;25.20;4.82;;;;;;;28.14;38.96;100159.16;10330684;28;20097;-76
2022/04/28 09:51:21;;;;;;;19.05;4.03;;;;;;;27.83;38.66;100155.94;10329932;28;20383;-81
2022/04/28 09:56:28;;;;;;;16.63;3.95;;;;;;;28.47;39.28;100232.34;10334634;28;20038;-80
2022/04/28 10:01:29;;;;;;;23.60;5.47;;;;;;;27.95;38.72;100153.63;10337742;28;20100;-78
2022/04/28 10:06:34;;;;;;;24.20;4.40;;;;;;;28.79;38.89;100264.50;10337137;28;20053;-80
2022/04/28 10:11:37;;;;;;;20.95;4.07;;;;;;;28.46;38.53;100182.34;10337657;28;20145;-81
2022/04/28 10:16:41;;;;;;;26.80;4.68;;;;;;;27.84;38.73;100050.28;10337113;28;20053;-81
2022/04/28 10:22:00;;;;;;;28.30;4.82;;;;;;;29.30;38.75;100252.94;10335706;28;20074;-77
2022/04/28 10:33:06;;;;;;;33.65;4.53;;;;;;;29.56;36.55;100245.97;10336544;28;20050;-81
2022/04/28 10:38:20;;;;;;;28.80;4.80;;;;;;;29.60;37.48;100246.19;10314757;28;20078;-81
2022/04/28 10:43:23;;;;;;;24.58;4.82;;;;;;;29.37;37.22;100250.63;10337050;28;20045;-82
2022/04/28 10:48:33;;;;;;;26.13;4.30;;;;;;;29.47;37.41;100246.97;10335290;28;20050;-79
2022/04/28 10:53:34;;;;;;;21.92;4.53;;;;;;;29.53;37.33;100229.34;10335681;28;20088;-80
2022/04/28 10:58:35;;;;;;;19.17;4.47;;;;;;;29.18;37.39;100173.25;10366407;28;20049;-81
2022/04/28 11:03:52;;;;;;;17.42;4.95;;;;;;;29.29;37.57;100232.16;10376013;28;20038;-78
2022/04/28 11:08:55;;;;;;;24.52;5.05;;;;;;;28.70;36.75;100102.25;10357588;28;20465;-80
2022/04/28 11:13:57;;;;;;;;;;;;;;;29.16;36.58;100220.03;10375538;28;20038;-79
2022/04/28 11:18:58;;;;;;;19.77;7.17;;;;;;;27.96;37.59;100094.38;10375835;28;19925;-81
2022/04/28 11:24:00;;;;;;;25.05;5.55;;;;;;;28.19;37.40;100107.22;10376186;28;20049;-80
2022/04/28 11:29:08;;;;;;;33.50;9.93;;;;;;;28.33;36.70;100112.81;10375536;28;20065;-80
2022/04/28 11:34:09;;;;;;;35.33;6.38;;;;;;;28.84;37.00;100146.91;10375909;28;20045;-80
2022/04/28 11:39:10;;;;;;;48.25;6.90;;;;;;;28.90;36.90;100145.72;10374818;28;20164;-80
2022/04/28 11:44:16;;;;;;;43.05;7.93;;;;;;;28.67;37.14;100181.00;10373692;28;20054;-79
2022/04/28 11:49:18;;;;;;;30.05;5.78;;;;;;;27.96;36.77;100053.44;10373505;28;20037;-79
2022/04/28 11:54:23;;;;;;;27.45;7.53;;;;;;;28.13;36.99;100053.78;10356446;28;20051;-82
2022/04/28 11:59:24;;;;;;;32.42;7.07;;;;;;;29.04;36.75;100146.59;10373226;28;20569;-79
2022/04/28 12:04:27;;;;;;;30.08;12.13;;;;;;;28.47;36.34;100058.28;10373064;28;20128;-80
2022/04/28 12:14:57;;;;;;;50.63;11.18;;;;;;;28.13;37.39;100070.16;10357368;28;20046;-78
2022/04/28 12:20:01;;;;;;;25.05;8.18;;;;;;;28.79;36.82;100157.88;10354880;28;20053;-71
2022/04/28 12:25:11;;;;;;;32.28;8.00;;;;;;;27.81;37.15;100024.38;10369650;28;20091;-72
2022/04/28 12:30:15;;;;;;;34.30;8.45;;;;;;;27.37;38.07;100019.09;10350496;28;20391;-72
2022/04/28 12:35:30;;;;;;;33.53;9.30;;;;;;;28.34;37.96;100162.78;10372695;28;20083;-72
2022/04/28 12:40:40;;;;;;;21.25;5.32;;;;;;;27.61;38.21;100057.31;10354249;28;20085;-73
2022/04/28 12:45:56;;;;;;;26.55;4.88;;;;;;;28.12;37.79;100157.81;10372560;28;20517;-71
2022/04/28 12:51:12;;;;;;;28.00;5.25;;;;;;;27.91;37.83;100133.50;10371305;28;20041;-72
2022/04/28 12:56:16;;;;;;;39.17;9.60;;;;;;;27.85;38.23;100163.81;10372415;28;20089;-73
2022/04/28 13:01:20;;;;;;;40.65;5.78;;;;;;;27.83;38.09;100147.75;10368436;28;20460;-72
2022/04/28 13:06:25;;;;;;;32.88;5.38;;;;;;;27.26;38.39;100098.28;10371445;28;20460;-73
2022/04/28 13:11:38;;;;;;;37.72;6.07;;;;;;;27.44;38.53;100177.81;10371972;28;20062;-72
2022/04/28 13:16:39;;;;;;;40.90;6.18;;;;;;;27.19;39.15;100160.53;10367744;28;20041;-74
2022/04/28 13:21:41;;;;;;;38.08;7.20;;;;;;;27.22;38.94;100180.94;10366056;28;20379;-73
2022/04/28 13:26:42;;;;;;;42.63;6.13;;;;;;;27.03;39.41;100178.84;10366528;28;20494;-74
2022/04/28 13:31:42;;;;;;;17.75;4.72;;;;;;;26.60;39.55;100117.78;10371031;28;20040;-74
2022/04/28 13:36:43;;;;;;;28.15;5.43;;;;;;;26.34;39.87;100085.16;10371594;28;20037;-74
2022/04/28 13:41:46;;;;;;;21.05;4.50;;;;;;;27.10;39.99;100194.88;10376610;28;20468;-73
2022/04/28 13:46:48;;;;;;;25.73;4.68;;;;;;;27.12;40.15;100202.78;10378339;28;20498;-74
2022/04/28 13:51:49;;;;;;;22.92;4.28;;;;;;;27.13;40.12;100174.41;10379309;28;20045;-72
2022/04/28 13:56:49;;;;;;;19.08;4.97;;;;;;;26.61;39.85;100097.59;10370842;28;20060;-72
2022/04/28 14:01:50;;;;;;;20.95;4.68;;;;;;;27.38;39.19;100189.84;10377710;28;20038;-73
2022/04/28 14:06:52;;;;;;;22.58;4.93;;;;;;;27.20;39.58;100194.06;10378733;28;20044;-72
2022/04/28 14:11:55;;;;;;;27.88;4.80;;;;;;;26.53;40.09;100101.69;10354252;28;20050;-74
2022/04/28 14:16:56;;;;;;;38.65;5.70;;;;;;;26.51;40.63;100112.09;10336926;28;20084;-72
2022/04/28 14:21:57;;;;;;;30.63;4.63;;;;;;;26.80;40.75;100196.69;10336724;28;20077;-74
2022/04/28 14:26:59;;;;;;;27.15;4.95;;;;;;;26.33;40.86;100139.91;10336661;28;20038;-72
2022/04/28 14:32:01;;;;;;;27.75;4.95;;;;;;;26.54;41.11;100195.16;10336081;28;20049;-73
2022/04/28 14:37:03;;;;;;;23.80;4.85;;;;;;;26.46;41.18;100210.13;10337286;28;20042;-75
2022/04/28 14:42:06;;;;;;;24.17;5.80;;;;;;;26.07;41.67;100182.72;10335063;28;20053;-73
2022/04/28 14:47:07;;;;;;;28.02;7.78;;;;;;;26.02;41.80;100191.69;10336078;28;20042;-73
2022/04/28 14:52:20;;;;;;;65.00;31.65;;;;;;;26.07;42.40;100207.22;10335359;28;20100;-72
2022/04/28 14:57:30;;;;;;;60.40;29.40;;;;;;;25.78;42.60;100188.69;10336128;28;20125;-74
2022/04/28 15:02:32;;;;;;;38.28;17.73;;;;;;;25.83;43.03;100212.41;10335000;28;20066;-74
2022/04/28 15:07:35;;;;;;;33.47;12.45;;;;;;;25.43;43.44;100167.75;10334756;28;20042;-75
2022/04/28 15:12:37;;;;;;;60.83;17.02;;;;;;;25.58;44.89;100245.84;10334258;28;20049;-73
2022/04/28 15:17:39;;;;;;;53.20;24.75;;;;;;;24.22;44.92;100063.88;10334181;28;20042;-73
2022/04/28 15:22:40;;;;;;;40.72;16.98;;;;;;;24.45;45.43;100116.94;10333601;28;20526;-73
2022/04/28 15:27:41;;;;;;;40.45;15.40;;;;;;;24.77;45.24;100190.94;10334281;28;20038;-73
2022/04/28 15:32:43;;;;;;;32.75;8.00;;;;;;;24.40;46.16;100182.03;10334769;28;20089;-73
2022/04/28 15:37:44;;;;;;;37.28;9.93;;;;;;;24.59;46.42;100260.13;10333498;28;20047;-73
2022/04/28 15:42:45;;;;;;;27.55;9.02;;;;;;;24.45;47.11;100255.41;10333112;28;20058;-73
2022/04/28 15:47:45;;;;;;;28.17;6.25;;;;;;;23.68;47.10;100171.47;10333598;28;20406;-75
2022/04/28 15:52:47;;;;;;;20.33;4.65;;;;;;;24.14;47.08;100275.00;10332700;28;20047;-72
2022/04/28 15:57:48;;;;;;;25.92;4.82;;;;;;;23.47;47.14;100196.78;10333253;28;20038;-74
2022/04/28 16:02:49;;;;;;;22.65;5.18;;;;;;;23.92;47.15;100280.50;10333083;28;20046;-74
2022/04/28 16:07:50;;;;;;;31.13;4.93;;;;;;;23.28;47.87;100212.59;10332384;28;20042;-75
2022/04/28 16:12:51;;;;;;;18.83;4.10;;;;;;;22.06;48.53;100073.81;10344759;28;20042;-77
2022/04/28 16:17:52;;;;;;;12.48;4.10;;;;;;;23.24;49.60;100293.59;10371735;28;20049;-79
2022/04/28 16:22:53;;;;;;;15.70;3.88;;;;;;;23.00;50.36;100297.63;10372878;28;20048;-75
2022/04/28 16:27:54;;;;;;;15.18;4.00;;;;;;;22.69;50.87;100286.34;10372504;28;20064;-77
2022/04/28 16:32:55;;;;;;;18.65;4.45;;;;;;;22.55;51.49;100298.59;10372491;28;20046;-74
2022/04/28 16:37:56;;;;;;;13.05;4.20;;;;;;;22.30;52.11;100318.78;10371239;28;20557;-76
2022/04/28 16:42:58;;;;;;;17.95;6.18;;;;;;;21.73;52.17;100248.56;10372181;28;20073;-77
2022/04/28 16:47:58;;;;;;;22.63;7.32;;;;;;;21.77;51.86;100278.63;10358327;28;20046;-77
2022/04/28 16:52:59;;;;;;;26.65;7.13;;;;;;;21.68;51.34;100275.50;10331061;28;20577;-78
2022/04/28 16:58:00;;;;;;;17.92;6.13;;;;;;;21.68;51.18;100296.31;10332011;28;20046;-77
2022/04/28 17:08:20;;;;;;;19.13;7.78;;;;;;;20.44;50.91;100135.56;10376606;28;20057;-80
2022/04/28 17:13:21;;;;;;;13.48;4.20;;;;;;;21.59;51.18;100337.25;10380153;28;20046;-79
2022/04/28 17:18:22;;;;;;;10.85;3.65;;;;;;;21.23;51.30;100303.25;10374823;28;20034;-77
2022/04/28 17:23:23;;;;;;;14.07;3.40;;;;;;;20.62;51.53;100226.38;10376593;28;20046;-79
2022/04/28 17:28:24;;;;;;;15.82;3.80;;;;;;;21.45;51.76;100378.28;10370923;28;20422;-76
2022/04/28 17:33:25;;;;;;;16.67;3.13;;;;;;;20.29;51.81;100225.09;10368481;28;20038;-78
2022/04/28 17:38:26;;;;;;;13.77;3.00;;;;;;;20.57;51.77;100291.03;10355399;28;20136;-79
2022/04/28 17:43:27;;;;;;;17.48;3.30;;;;;;;21.03;51.93;100368.50;10371699;28;20048;-76
2022/04/28 17:48:28;;;;;;;8.73;3.42;;;;;;;21.00;51.89;100392.44;10368308;28;20041;-78
2022/04/28 17:53:28;;;;;;;16.23;4.25;;;;;;;21.01;51.98;100411.13;10374851;28;20045;-75
2022/04/28 18:03:49;;;;;;;15.48;3.67;;;;;;;20.78;52.39;100419.19;10376214;28;20052;-76
2022/04/28 18:08:50;;;;;;;13.85;3.83;;;;;;;19.86;52.52;100296.28;10375401;28;20517;-79
2022/04/28 18:13:52;;;;;;;10.57;3.72;;;;;;;20.54;52.51;100423.75;10375398;28;20044;-79
2022/04/28 18:18:53;;;;;;;12.98;3.85;;;;;;;19.74;52.24;100327.78;10372606;28;20049;-78
2022/04/28 18:23:54;;;;;;;15.85;3.33;;;;;;;20.22;52.23;100411.31;10361833;28;20056;-77
2022/04/28 18:28:56;;;;;;;10.63;3.13;;;;;;;19.38;51.81;100278.28;10375086;28;20053;-76
2022/04/28 18:33:57;;;;;;;10.52;3.00;;;;;;;19.82;51.60;100359.81;10375248;28;20124;-77
2022/04/28 18:44:26;;;;;;;9.30;2.20;;;;;;;19.20;50.97;100262.16;10374716;28;20100;-78
2022/04/28 18:49:30;;;;;;;7.70;2.00;;;;;;;19.44;50.68;100328.56;10356991;28;20034;-80
2022/04/28 18:54:31;;;;;;;16.98;2.22;;;;;;;20.05;50.94;100418.41;10371661;28;20440;-78
2022/04/28 18:59:39;;;;;;;7.95;2.58;;;;;;;19.16;50.68;100313.78;10373403;28;20064;-78
2022/04/28 19:04:42;;;;;;;12.75;2.03;;;;;;;18.78;50.94;100259.34;10373487;28;20041;-79
2022/04/28 19:09:45;;;;;;;13.63;1.98;;;;;;;18.25;50.98;100175.44;10371370;28;20065;-78
2022/04/28 19:14:52;;;;;;;7.45;1.63;;;;;;;18.89;50.64;100301.66;10370487;28;20120;-78
2022/04/28 19:19:54;;;;;;;27.67;2.25;;;;;;;18.63;50.96;100278.50;10373805;28;20406;-77
2022/04/28 19:24:57;;;;;;;6.50;1.60;;;;;;;19.47;51.09;100419.69;10374292;28;20064;-78
2022/04/28 19:29:58;;;;;;;7.63;2.05;;;;;;;19.15;51.25;100378.63;10374182;28;20067;-78
2022/04/28 19:34:58;;;;;;;3.08;1.38;;;;;;;19.51;51.13;100437.09;10374819;28;20038;-79
2022/04/28 19:39:59;;;;;;;5.03;1.73;;;;;;;18.98;51.11;100375.69;10374618;28;20042;-79
2022/04/28 19:45:00;;;;;;;5.63;1.48;;;;;;;18.59;51.41;100321.19;10374395;28;20398;-81
2022/04/28 19:50:01;;;;;;;6.78;1.40;;;;;;;19.05;51.61;100394.47;10373789;28;20041;-80
2022/04/28 19:55:02;;;;;;;10.35;2.10;;;;;;;19.20;51.70;100434.50;10374732;28;20494;-80
2022/04/28 20:00:04;;;;;;;4.65;1.58;;;;;;;19.13;51.75;100432.72;10373677;28;20046;-78
2022/04/28 20:05:05;;;;;;;6.35;1.58;;;;;;;17.73;52.15;100225.88;10374310;28;20050;-80
2022/04/28 20:10:11;;;;;;;8.93;1.90;;;;;;;19.04;52.07;100450.19;10374004;28;20060;-78
2022/04/28 20:15:13;;;;;;;7.30;1.45;;;;;;;18.75;52.31;100397.84;10372693;28;20096;-76
2022/04/28 20:20:16;;;;;;;9.25;1.50;;;;;;;18.74;52.14;100406.97;10373466;28;20048;-77
2022/04/28 20:25:17;;;;;;;9.25;1.67;;;;;;;18.15;52.51;100319.47;10373463;28;20100;-80
2022/04/28 20:30:19;;;;;;;6.43;1.38;;;;;;;18.56;52.59;100405.03;10373546;28;20379;-82
2022/04/28 20:35:21;;;;;;;6.63;1.70;;;;;;;18.47;53.16;100392.88;10373386;28;20053;-79
2022/04/28 20:40:22;;;;;;;7.05;1.70;;;;;;;17.75;53.07;100280.25;10371061;28;20092;-79
2022/04/28 20:45:23;;;;;;;5.70;1.60;;;;;;;18.44;53.05;100387.94;10372182;28;20037;-78
2022/04/28 20:50:23;;;;;;;7.32;1.70;;;;;;;17.22;53.39;100210.72;10371858;28;20045;-79
2022/04/28 20:55:24;;;;;;;19.63;1.95;;;;;;;16.93;53.41;100162.97;10371722;28;20099;-80
2022/04/28 21:00:25;;;;;;;9.13;1.90;;;;;;;18.31;53.72;100388.03;10371805;28;20046;-79
2022/04/28 21:05:27;;;;;;;6.07;1.60;;;;;;;17.07;53.54;100202.13;10372630;28;20087;-79
2022/04/28 21:10:29;;;;;;;7.18;1.58;;;;;;;18.21;53.64;100391.19;10372126;28;20494;-82
2022/04/28 21:15:30;;;;;;;5.68;1.40;;;;;;;18.14;53.94;100401.19;10372394;28;20042;-83
2022/04/28 21:20:31;;;;;;;3.75;1.35;;;;;;;16.51;53.99;100130.31;10372816;28;20046;-79
2022/04/28 21:25:32;;;;;;;12.68;1.55;;;;;;;17.26;54.06;100265.66;10371868;28;20041;-78
2022/04/28 21:30:34;;;;;;;8.70;1.63;;;;;;;17.90;54.63;100382.09;10371958;28;20196;-79
2022/04/28 21:35:38;;;;;;;5.38;1.65;;;;;;;17.64;54.88;100336.50;10370656;28;20405;-82
2022/04/28 21:40:39;;;;;;;;;;;;;;;17.82;55.16;100374.25;10370647;28;20049;-76
2022/04/28 21:45:40;;;;;;;7.68;2.10;;;;;;;17.48;54.99;100340.53;10371139;28;19917;-79
2022/04/28 21:50:41;;;;;;;5.28;1.67;;;;;;;17.40;55.33;100319.28;10373307;28;20046;-78
2022/04/28 21:55:42;;;;;;;8.02;1.65;;;;;;;17.42;55.73;100333.31;10379092;28;20041;-78
2022/04/28 22:00:48;;;;;;;8.80;2.05;;;;;;;17.49;56.00;100347.53;10378424;28;20390;-79
2022/04/28 22:11:14;;;;;;;6.63;1.45;;;;;;;16.34;55.90;100172.88;10377220;28;20057;-78
2022/04/28 22:16:16;;;;;;;5.72;2.15;;;;;;;17.29;56.04;100345.75;10378416;28;20046;-77
2022/04/28 22:21:18;;;;;;;7.97;1.75;;;;;;;17.22;56.27;100334.19;10360212;28;20052;-78
2022/04/28 22:26:18;;;;;;;3.67;1.27;;;;;;;17.13;56.55;100332.78;10377894;28;20097;-80
2022/04/28 22:31:19;;;;;;;6.28;1.30;;;;;;;16.94;56.71;100310.34;10377399;28;20387;-81
2022/04/28 22:36:23;;;;;;;4.25;1.50;;;;;;;16.91;57.06;100313.44;10376571;28;20042;-77
2022/04/28 22:41:24;;;;;;;5.28;1.60;;;;;;;15.27;56.99;100059.63;10376787;28;20057;-80
2022/04/28 22:46:25;;;;;;;9.48;1.58;;;;;;;16.05;57.35;100206.28;10376640;28;20037;-81
2022/04/28 22:51:26;;;;;;;4.25;1.48;;;;;;;16.47;57.37;100285.44;10375964;28;20045;-79
2022/04/28 22:56:28;;;;;;;4.75;1.40;;;;;;;16.24;57.49;100250.19;10374848;28;20066;-80
2022/04/28 23:01:29;;;;;;;4.60;1.40;;;;;;;15.47;57.70;100167.53;10374957;28;20088;-76
2022/04/28 23:06:30;;;;;;;4.40;1.52;;;;;;;16.05;57.86;100247.31;10374943;28;20081;-78
2022/04/28 23:11:31;;;;;;;4.55;1.27;;;;;;;15.73;57.87;100198.03;10373626;28;20057;-77
2022/04/28 23:16:32;;;;;;;6.80;1.50;;;;;;;15.62;58.32;100193.28;10357842;28;20452;-77
2022/04/28 23:21:33;;;;;;;5.47;1.38;;;;;;;15.28;58.41;100152.25;10375200;28;20042;-77
2022/04/28 23:26:34;;;;;;;3.25;1.02;;;;;;;15.48;58.47;100190.56;10368410;28;20051;-79
2022/04/28 23:31:35;;;;;;;3.63;1.13;;;;;;;14.87;58.67;100104.19;10365319;28;20112;-78
2022/04/28 23:47:14;;;;;;;5.97;1.30;;;;;;;15.80;58.68;100278.41;10333746;28;20077;-76
2022/04/28 23:52:15;;;;;;;3.53;1.50;;;;;;;15.09;59.08;100185.97;10333516;28;20081;-77
2022/04/28 23:57:16;;;;;;;2.70;1.10;;;;;;;14.84;59.34;100149.06;10333451;28;20048;-77
